Airfield :
LOGIN :

Register | Disclaimer

   EN    FR    IT 

 










Legend :    VFR   Marginal VFR   IFR   Intensive IFR   Very Intensive IFR
Visi :
Ceiling :
>= 8 km
>= 3000ft
5 to 8 km
1000 to 3000 ft
1500m to 5 km
500 to 1000 ft
800 to 1500m
200 to 500 ft
< 800m
< 200 ft
Symbols :   Thunderstorms  Fog  Heavy snow  Heavy precipitations  Wind > 20 kt
SIGMETs :     Misc.  Thunderstorms  Icing  Turbulence  Mountain Waves  Volcanic Ashes







- Airport Elevation : 1548 ft


LKNA - Náměšť Air Base

CURRENT METAR :
  • 190200Z 27011KT 9999 -RA FEW013 OVC060 02/M00 Q1012 RMK BLACK

EXPIRED METARs :
  • 190100Z 27013KT 9999 -RA NSC 02/M01 Q1013 RMK BLACK
  • 190000Z 27016KT 9999 -RA OVC035 02/M01 Q1013 RMK BLACK

TAF TAF LKNA
Valid from the 19 at 00:00 until the 20 at 00:00 UTC


182300Z 1900/2000 28008KT 9999 BKN035
TEMPO 1900/1912 28015KT 6000 RASN BKN025
PROB30
TEMPO 1900/1912 4000 RASN BKN015 OVC025
BECMG 1912/1914 29014KT
TEMPO 1917/2000 29016G26KT 6000 RASN BKN020
No reported NOTAMs for that airfield.



MET'MAP, your aeronautical weather chart ! - Copyright ORBIFLY December 2007 - Disclaimer

ORBIFLY MET'MAP TEAM :

Programming & Development : Alexandra Zaïnal
Concept & Development : Baudouin d'Aumeries
Co-Development & Prog : Marc-Olivier Méhu
Technical & hardware support : Manuel Goepfert

Contact : metmap@orbifly.com




SOURCES & CREDITS :

   NOAA